sensor_id;sensor_type;location;lat;lon;timestamp;temperature;humidity
12025;DHT22;6073;53.230;10.444;2023-06-22T00:02:08;16.90;99.90
12025;DHT22;6073;53.230;10.444;2023-06-22T00:04:34;16.80;99.90
12025;DHT22;6073;53.230;10.444;2023-06-22T00:06:59;16.70;99.90
12025;DHT22;6073;53.230;10.444;2023-06-22T00:09:25;16.70;99.90
12025;DHT22;6073;53.230;10.444;2023-06-22T00:11:50;16.70;99.90
12025;DHT22;6073;53.230;10.444;2023-06-22T00:14:16;16.60;99.90
12025;DHT22;6073;53.230;10.444;2023-06-22T00:16:41;16.60;99.90
12025;DHT22;6073;53.230;10.444;2023-06-22T00:19:08;16.60;99.90
12025;DHT22;6073;53.230;10.444;2023-06-22T00:21:36;16.60;99.90
12025;DHT22;6073;53.230;10.444;2023-06-22T00:24:03;16.60;99.90
12025;DHT22;6073;53.230;10.444;2023-06-22T00:26:29;16.50;99.90
12025;DHT22;6073;53.230;10.444;2023-06-22T00:28:55;16.60;99.90
12025;DHT22;6073;53.230;10.444;2023-06-22T00:31:20;16.60;99.90
12025;DHT22;6073;53.230;10.444;2023-06-22T00:33:46;16.50;99.90
12025;DHT22;6073;53.230;10.444;2023-06-22T00:36:12;16.50;99.90
12025;DHT22;6073;53.230;10.444;2023-06-22T00:38:41;16.50;99.90
12025;DHT22;6073;53.230;10.444;2023-06-22T00:41:07;16.50;99.90
12025;DHT22;6073;53.230;10.444;2023-06-22T00:43:32;16.50;99.90
12025;DHT22;6073;53.230;10.444;2023-06-22T00:45:58;16.40;99.90
12025;DHT22;6073;53.230;10.444;2023-06-22T00:48:24;16.40;99.90
12025;DHT22;6073;53.230;10.444;2023-06-22T00:50:50;16.30;99.90
12025;DHT22;6073;53.230;10.444;2023-06-22T00:53:16;16.30;99.90
12025;DHT22;6073;53.230;10.444;2023-06-22T00:55:44;16.30;99.90
12025;DHT22;6073;53.230;10.444;2023-06-22T00:58:12;16.20;99.90
12025;DHT22;6073;53.230;10.444;2023-06-22T01:00:39;16.30;99.90
12025;DHT22;6073;53.230;10.444;2023-06-22T01:03:05;16.30;99.90
12025;DHT22;6073;53.230;10.444;2023-06-22T01:05:35;16.30;99.90
12025;DHT22;6073;53.230;10.444;2023-06-22T01:08:25;16.20;99.90
12025;DHT22;6073;53.230;10.444;2023-06-22T01:13:52;16.10;99.90
12025;DHT22;6073;53.230;10.444;2023-06-22T01:16:34;16.10;99.90
12025;DHT22;6073;53.230;10.444;2023-06-22T01:19:05;16.10;99.90
12025;DHT22;6073;53.230;10.444;2023-06-22T01:21:35;16.00;99.90
12025;DHT22;6073;53.230;10.444;2023-06-22T01:24:25;16.00;99.90
12025;DHT22;6073;53.230;10.444;2023-06-22T01:29:35;15.90;99.90
12025;DHT22;6073;53.230;10.444;2023-06-22T01:32:02;15.90;99.90
12025;DHT22;6073;53.230;10.444;2023-06-22T01:34:30;15.90;99.90
12025;DHT22;6073;53.230;10.444;2023-06-22T01:36:58;15.90;99.90
12025;DHT22;6073;53.230;10.444;2023-06-22T01:39:24;16.00;99.90
12025;DHT22;6073;53.230;10.444;2023-06-22T01:41:50;15.90;99.90
12025;DHT22;6073;53.230;10.444;2023-06-22T01:44:16;15.90;99.90
12025;DHT22;6073;53.230;10.444;2023-06-22T01:46:43;15.90;99.90
12025;DHT22;6073;53.230;10.444;2023-06-22T01:49:09;15.90;99.90
12025;DHT22;6073;53.230;10.444;2023-06-22T01:51:34;15.90;99.90
12025;DHT22;6073;53.230;10.444;2023-06-22T01:54:01;15.80;99.90
12025;DHT22;6073;53.230;10.444;2023-06-22T01:56:27;15.80;99.90
12025;DHT22;6073;53.230;10.444;2023-06-22T01:59:17;15.80;99.90
12025;DHT22;6073;53.230;10.444;2023-06-22T02:01:57;15.80;99.90
12025;DHT22;6073;53.230;10.444;2023-06-22T02:04:27;15.80;99.90
12025;DHT22;6073;53.230;10.444;2023-06-22T02:06:57;15.80;99.90
12025;DHT22;6073;53.230;10.444;2023-06-22T02:09:25;15.80;99.90
12025;DHT22;6073;53.230;10.444;2023-06-22T02:11:54;15.80;99.90
12025;DHT22;6073;53.230;10.444;2023-06-22T02:14:22;15.80;99.90
12025;DHT22;6073;53.230;10.444;2023-06-22T02:16:48;15.80;99.90
12025;DHT22;6073;53.230;10.444;2023-06-22T02:19:14;15.70;99.90
12025;DHT22;6073;53.230;10.444;2023-06-22T02:21:41;15.70;99.90
12025;DHT22;6073;53.230;10.444;2023-06-22T02:24:06;15.80;99.90
12025;DHT22;6073;53.230;10.444;2023-06-22T02:26:32;15.80;99.90
12025;DHT22;6073;53.230;10.444;2023-06-22T02:28:58;15.80;99.90
12025;DHT22;6073;53.230;10.444;2023-06-22T02:31:23;15.80;99.90
12025;DHT22;6073;53.230;10.444;2023-06-22T02:33:59;15.70;99.90
12025;DHT22;6073;53.230;10.444;2023-06-22T02:36:25;15.80;99.90
12025;DHT22;6073;53.230;10.444;2023-06-22T02:38:53;15.70;99.90
12025;DHT22;6073;53.230;10.444;2023-06-22T02:41:19;15.70;99.90
12025;DHT22;6073;53.230;10.444;2023-06-22T02:43:45;15.70;99.90
12025;DHT22;6073;53.230;10.444;2023-06-22T02:46:12;15.70;99.90
12025;DHT22;6073;53.230;10.444;2023-06-22T02:48:39;15.70;99.90
12025;DHT22;6073;53.230;10.444;2023-06-22T02:51:04;15.70;99.90
12025;DHT22;6073;53.230;10.444;2023-06-22T02:53:30;15.70;99.90
12025;DHT22;6073;53.230;10.444;2023-06-22T02:55:57;15.60;99.90
12025;DHT22;6073;53.230;10.444;2023-06-22T02:58:22;15.60;99.90
12025;DHT22;6073;53.230;10.444;2023-06-22T03:00:49;15.60;99.90
12025;DHT22;6073;53.230;10.444;2023-06-22T03:03:19;15.50;99.90
12025;DHT22;6073;53.230;10.444;2023-06-22T03:05:44;15.50;99.90
12025;DHT22;6073;53.230;10.444;2023-06-22T03:08:10;15.50;99.90
12025;DHT22;6073;53.230;10.444;2023-06-22T03:10:35;15.60;99.90
12025;DHT22;6073;53.230;10.444;2023-06-22T03:13:01;15.50;99.90
12025;DHT22;6073;53.230;10.444;2023-06-22T03:15:27;15.50;99.90
12025;DHT22;6073;53.230;10.444;2023-06-22T03:17:54;15.50;99.90
12025;DHT22;6073;53.230;10.444;2023-06-22T03:20:20;15.50;99.90
12025;DHT22;6073;53.230;10.444;2023-06-22T03:22:45;15.60;99.90
12025;DHT22;6073;53.230;10.444;2023-06-22T03:25:11;15.60;99.90
12025;DHT22;6073;53.230;10.444;2023-06-22T03:27:39;15.70;99.90
12025;DHT22;6073;53.230;10.444;2023-06-22T03:30:06;15.70;99.90
12025;DHT22;6073;53.230;10.444;2023-06-22T03:32:32;15.70;99.90
12025;DHT22;6073;53.230;10.444;2023-06-22T03:34:58;15.80;99.90
12025;DHT22;6073;53.230;10.444;2023-06-22T03:37:56;15.90;99.90
12025;DHT22;6073;53.230;10.444;2023-06-22T03:40:48;16.00;99.90
12025;DHT22;6073;53.230;10.444;2023-06-22T03:56:37;16.30;99.90
12025;DHT22;6073;53.230;10.444;2023-06-22T03:59:03;16.40;99.90
12025;DHT22;6073;53.230;10.444;2023-06-22T04:01:29;16.50;99.90
12025;DHT22;6073;53.230;10.444;2023-06-22T04:03:54;16.50;99.90
12025;DHT22;6073;53.230;10.444;2023-06-22T04:06:20;16.50;99.90
12025;DHT22;6073;53.230;10.444;2023-06-22T04:08:45;16.50;99.90
12025;DHT22;6073;53.230;10.444;2023-06-22T04:11:19;16.60;99.90
12025;DHT22;6073;53.230;10.444;2023-06-22T04:13:44;16.60;99.90
12025;DHT22;6073;53.230;10.444;2023-06-22T04:16:10;16.60;99.90
12025;DHT22;6073;53.230;10.444;2023-06-22T04:18:35;16.60;99.90
12025;DHT22;6073;53.230;10.444;2023-06-22T04:21:02;16.70;99.90
12025;DHT22;6073;53.230;10.444;2023-06-22T04:23:27;16.70;99.90
12025;DHT22;6073;53.230;10.444;2023-06-22T04:25:53;16.70;99.90
12025;DHT22;6073;53.230;10.444;2023-06-22T04:28:18;16.70;99.90
12025;DHT22;6073;53.230;10.444;2023-06-22T04:30:44;16.80;99.90
12025;DHT22;6073;53.230;10.444;2023-06-22T04:33:16;16.90;99.90
12025;DHT22;6073;53.230;10.444;2023-06-22T04:35:44;16.90;99.90
12025;DHT22;6073;53.230;10.444;2023-06-22T04:38:12;17.00;99.90
12025;DHT22;6073;53.230;10.444;2023-06-22T04:40:39;17.00;99.90
12025;DHT22;6073;53.230;10.444;2023-06-22T04:43:04;17.10;99.90
12025;DHT22;6073;53.230;10.444;2023-06-22T04:45:32;17.10;99.90
12025;DHT22;6073;53.230;10.444;2023-06-22T04:47:57;17.30;99.90
12025;DHT22;6073;53.230;10.444;2023-06-22T04:50:23;17.50;99.90
12025;DHT22;6073;53.230;10.444;2023-06-22T04:52:50;17.70;99.90
12025;DHT22;6073;53.230;10.444;2023-06-22T04:55:15;17.70;99.90
12025;DHT22;6073;53.230;10.444;2023-06-22T04:57:44;17.90;99.90
12025;DHT22;6073;53.230;10.444;2023-06-22T05:00:15;18.10;99.90
12025;DHT22;6073;53.230;10.444;2023-06-22T05:02:43;18.30;99.90
12025;DHT22;6073;53.230;10.444;2023-06-22T05:05:10;18.40;99.90
12025;DHT22;6073;53.230;10.444;2023-06-22T05:07:42;18.50;99.90
12025;DHT22;6073;53.230;10.444;2023-06-22T05:10:11;18.70;99.90
12025;DHT22;6073;53.230;10.444;2023-06-22T05:12:38;19.00;99.90
12025;DHT22;6073;53.230;10.444;2023-06-22T05:15:05;19.10;99.90
12025;DHT22;6073;53.230;10.444;2023-06-22T05:17:31;19.40;99.90
12025;DHT22;6073;53.230;10.444;2023-06-22T05:19:56;19.80;99.90
12025;DHT22;6073;53.230;10.444;2023-06-22T05:22:22;20.20;99.90
12025;DHT22;6073;53.230;10.444;2023-06-22T05:24:47;20.40;99.90
12025;DHT22;6073;53.230;10.444;2023-06-22T05:27:14;20.60;99.90
12025;DHT22;6073;53.230;10.444;2023-06-22T05:29:39;20.70;99.90
12025;DHT22;6073;53.230;10.444;2023-06-22T05:32:05;20.80;99.90
12025;DHT22;6073;53.230;10.444;2023-06-22T05:34:32;20.80;99.90
12025;DHT22;6073;53.230;10.444;2023-06-22T05:36:57;21.10;99.90
12025;DHT22;6073;53.230;10.444;2023-06-22T05:39:24;21.60;99.90
12025;DHT22;6073;53.230;10.444;2023-06-22T05:41:50;22.20;99.90
12025;DHT22;6073;53.230;10.444;2023-06-22T05:44:15;23.00;99.90
12025;DHT22;6073;53.230;10.444;2023-06-22T05:46:43;23.50;99.90
12025;DHT22;6073;53.230;10.444;2023-06-22T05:49:11;24.10;99.90
12025;DHT22;6073;53.230;10.444;2023-06-22T05:51:36;24.30;99.90
12025;DHT22;6073;53.230;10.444;2023-06-22T05:54:02;24.40;99.90
12025;DHT22;6073;53.230;10.444;2023-06-22T05:56:27;24.80;99.90
12025;DHT22;6073;53.230;10.444;2023-06-22T05:58:53;25.30;99.90
12025;DHT22;6073;53.230;10.444;2023-06-22T06:01:18;25.60;99.90
12025;DHT22;6073;53.230;10.444;2023-06-22T06:03:44;25.90;99.90
12025;DHT22;6073;53.230;10.444;2023-06-22T06:06:09;25.40;99.90
12025;DHT22;6073;53.230;10.444;2023-06-22T06:08:37;25.10;99.90
12025;DHT22;6073;53.230;10.444;2023-06-22T06:11:02;24.50;99.90
12025;DHT22;6073;53.230;10.444;2023-06-22T06:13:28;23.80;99.90
12025;DHT22;6073;53.230;10.444;2023-06-22T06:15:53;23.50;99.90
12025;DHT22;6073;53.230;10.444;2023-06-22T06:18:21;23.20;99.90
12025;DHT22;6073;53.230;10.444;2023-06-22T06:20:47;23.00;99.90
12025;DHT22;6073;53.230;10.444;2023-06-22T06:23:12;23.30;99.90
12025;DHT22;6073;53.230;10.444;2023-06-22T06:25:38;23.80;99.90
12025;DHT22;6073;53.230;10.444;2023-06-22T06:28:04;24.30;99.90
12025;DHT22;6073;53.230;10.444;2023-06-22T06:30:30;24.50;99.90
12025;DHT22;6073;53.230;10.444;2023-06-22T06:32:56;24.90;99.90
12025;DHT22;6073;53.230;10.444;2023-06-22T06:35:21;25.30;99.90
12025;DHT22;6073;53.230;10.444;2023-06-22T06:37:49;25.90;99.90
12025;DHT22;6073;53.230;10.444;2023-06-22T06:40:16;25.80;99.90
12025;DHT22;6073;53.230;10.444;2023-06-22T06:42:43;25.40;99.90
12025;DHT22;6073;53.230;10.444;2023-06-22T06:47:36;26.20;99.90
12025;DHT22;6073;53.230;10.444;2023-06-22T06:50:03;26.00;99.90
12025;DHT22;6073;53.230;10.444;2023-06-22T06:52:29;26.20;99.90
12025;DHT22;6073;53.230;10.444;2023-06-22T06:54:54;26.80;99.90
12025;DHT22;6073;53.230;10.444;2023-06-22T06:57:20;27.50;99.90
12025;DHT22;6073;53.230;10.444;2023-06-22T06:59:46;27.40;99.90
12025;DHT22;6073;53.230;10.444;2023-06-22T07:02:11;28.10;99.90
12025;DHT22;6073;53.230;10.444;2023-06-22T07:04:37;28.10;99.90
12025;DHT22;6073;53.230;10.444;2023-06-22T07:07:03;28.40;99.90
12025;DHT22;6073;53.230;10.444;2023-06-22T07:09:28;29.10;99.90
12025;DHT22;6073;53.230;10.444;2023-06-22T07:11:54;29.60;99.90
12025;DHT22;6073;53.230;10.444;2023-06-22T07:14:19;29.20;99.90
12025;DHT22;6073;53.230;10.444;2023-06-22T07:16:45;29.30;99.90
12025;DHT22;6073;53.230;10.444;2023-06-22T07:19:13;28.90;99.90
12025;DHT22;6073;53.230;10.444;2023-06-22T07:21:39;28.80;99.90
12025;DHT22;6073;53.230;10.444;2023-06-22T07:24:05;28.60;99.90
12025;DHT22;6073;53.230;10.444;2023-06-22T07:26:31;28.40;99.90
12025;DHT22;6073;53.230;10.444;2023-06-22T07:28:57;28.70;99.90
12025;DHT22;6073;53.230;10.444;2023-06-22T07:31:24;29.50;99.90
12025;DHT22;6073;53.230;10.444;2023-06-22T07:33:49;29.80;99.90
12025;DHT22;6073;53.230;10.444;2023-06-22T07:36:16;29.70;99.90
12025;DHT22;6073;53.230;10.444;2023-06-22T07:38:42;29.80;99.90
12025;DHT22;6073;53.230;10.444;2023-06-22T07:41:08;29.60;99.90
12025;DHT22;6073;53.230;10.444;2023-06-22T07:43:33;29.50;99.90
12025;DHT22;6073;53.230;10.444;2023-06-22T07:46:02;29.70;99.90
12025;DHT22;6073;53.230;10.444;2023-06-22T07:48:28;30.10;99.90
12025;DHT22;6073;53.230;10.444;2023-06-22T07:50:54;30.40;99.90
12025;DHT22;6073;53.230;10.444;2023-06-22T07:53:20;30.70;99.90
12025;DHT22;6073;53.230;10.444;2023-06-22T07:55:45;30.80;99.90
12025;DHT22;6073;53.230;10.444;2023-06-22T07:58:11;30.80;99.90
12025;DHT22;6073;53.230;10.444;2023-06-22T08:00:36;31.00;99.90
12025;DHT22;6073;53.230;10.444;2023-06-22T08:03:02;31.00;99.90
12025;DHT22;6073;53.230;10.444;2023-06-22T08:05:30;31.30;99.90
12025;DHT22;6073;53.230;10.444;2023-06-22T08:07:56;31.00;99.90
12025;DHT22;6073;53.230;10.444;2023-06-22T08:10:21;30.60;99.90
12025;DHT22;6073;53.230;10.444;2023-06-22T08:12:47;31.00;99.90
12025;DHT22;6073;53.230;10.444;2023-06-22T08:15:13;31.30;99.90
12025;DHT22;6073;53.230;10.444;2023-06-22T08:17:38;31.20;99.90
12025;DHT22;6073;53.230;10.444;2023-06-22T08:20:05;31.00;99.90
12025;DHT22;6073;53.230;10.444;2023-06-22T08:22:35;30.70;99.90
12025;DHT22;6073;53.230;10.444;2023-06-22T08:25:02;30.80;99.90
12025;DHT22;6073;53.230;10.444;2023-06-22T08:27:29;31.00;99.90
12025;DHT22;6073;53.230;10.444;2023-06-22T08:29:57;31.50;99.90
12025;DHT22;6073;53.230;10.444;2023-06-22T08:32:24;31.60;99.90
12025;DHT22;6073;53.230;10.444;2023-06-22T08:34:52;31.20;99.90
12025;DHT22;6073;53.230;10.444;2023-06-22T08:37:18;31.50;99.90
12025;DHT22;6073;53.230;10.444;2023-06-22T08:39:43;31.80;99.90
12025;DHT22;6073;53.230;10.444;2023-06-22T08:42:09;32.00;99.90
12025;DHT22;6073;53.230;10.444;2023-06-22T08:44:34;31.50;99.90
12025;DHT22;6073;53.230;10.444;2023-06-22T08:47:00;31.50;99.90
12025;DHT22;6073;53.230;10.444;2023-06-22T08:49:25;31.40;99.90
12025;DHT22;6073;53.230;10.444;2023-06-22T08:51:51;30.70;99.90
12025;DHT22;6073;53.230;10.444;2023-06-22T08:54:18;30.70;99.90
12025;DHT22;6073;53.230;10.444;2023-06-22T08:56:44;30.40;99.90
12025;DHT22;6073;53.230;10.444;2023-06-22T08:59:09;30.90;99.90
12025;DHT22;6073;53.230;10.444;2023-06-22T09:01:35;31.50;99.90
12025;DHT22;6073;53.230;10.444;2023-06-22T09:04:00;31.30;99.90
12025;DHT22;6073;53.230;10.444;2023-06-22T09:06:26;31.40;99.90
12025;DHT22;6073;53.230;10.444;2023-06-22T09:08:51;31.50;99.90
12025;DHT22;6073;53.230;10.444;2023-06-22T09:11:17;31.80;99.90
12025;DHT22;6073;53.230;10.444;2023-06-22T09:13:43;31.70;99.90
12025;DHT22;6073;53.230;10.444;2023-06-22T09:16:08;31.60;99.90
12025;DHT22;6073;53.230;10.444;2023-06-22T09:18:34;31.70;99.90
12025;DHT22;6073;53.230;10.444;2023-06-22T09:21:00;31.50;99.90
12025;DHT22;6073;53.230;10.444;2023-06-22T09:23:25;31.70;99.90
12025;DHT22;6073;53.230;10.444;2023-06-22T09:25:51;31.50;99.90
12025;DHT22;6073;53.230;10.444;2023-06-22T09:28:17;31.40;99.90
12025;DHT22;6073;53.230;10.444;2023-06-22T09:30:45;31.10;99.90
12025;DHT22;6073;53.230;10.444;2023-06-22T09:33:11;30.90;99.90
12025;DHT22;6073;53.230;10.444;2023-06-22T09:35:36;30.90;99.90
12025;DHT22;6073;53.230;10.444;2023-06-22T09:38:02;30.20;99.90
12025;DHT22;6073;53.230;10.444;2023-06-22T09:40:27;29.90;99.90
12025;DHT22;6073;53.230;10.444;2023-06-22T09:42:53;29.90;99.90
12025;DHT22;6073;53.230;10.444;2023-06-22T09:45:19;29.60;99.90
12025;DHT22;6073;53.230;10.444;2023-06-22T09:47:44;29.60;99.90
12025;DHT22;6073;53.230;10.444;2023-06-22T09:50:10;29.60;99.90
12025;DHT22;6073;53.230;10.444;2023-06-22T09:52:36;29.60;99.90
12025;DHT22;6073;53.230;10.444;2023-06-22T09:55:01;29.70;99.90
12025;DHT22;6073;53.230;10.444;2023-06-22T09:57:29;29.80;99.90
12025;DHT22;6073;53.230;10.444;2023-06-22T09:59:54;29.80;99.90
12025;DHT22;6073;53.230;10.444;2023-06-22T10:02:20;29.50;99.90
12025;DHT22;6073;53.230;10.444;2023-06-22T10:04:46;29.60;99.90
12025;DHT22;6073;53.230;10.444;2023-06-22T10:07:11;29.70;99.90
12025;DHT22;6073;53.230;10.444;2023-06-22T10:09:37;29.90;99.90
12025;DHT22;6073;53.230;10.444;2023-06-22T10:12:02;30.20;99.90
12025;DHT22;6073;53.230;10.444;2023-06-22T10:14:28;30.50;99.90
12025;DHT22;6073;53.230;10.444;2023-06-22T10:16:55;30.80;99.90
12025;DHT22;6073;53.230;10.444;2023-06-22T10:19:20;30.90;99.90
12025;DHT22;6073;53.230;10.444;2023-06-22T10:21:46;31.00;99.90
12025;DHT22;6073;53.230;10.444;2023-06-22T10:24:11;30.90;99.90
12025;DHT22;6073;53.230;10.444;2023-06-22T10:26:37;30.60;99.90
12025;DHT22;6073;53.230;10.444;2023-06-22T10:29:03;30.50;99.90
12025;DHT22;6073;53.230;10.444;2023-06-22T10:31:28;30.00;99.90
12025;DHT22;6073;53.230;10.444;2023-06-22T10:33:54;29.70;99.90
12025;DHT22;6073;53.230;10.444;2023-06-22T10:36:21;29.40;99.90
12025;DHT22;6073;53.230;10.444;2023-06-22T10:38:47;29.80;99.90
12025;DHT22;6073;53.230;10.444;2023-06-22T10:41:13;29.70;99.90
12025;DHT22;6073;53.230;10.444;2023-06-22T10:43:39;29.60;99.90
12025;DHT22;6073;53.230;10.444;2023-06-22T10:46:04;29.30;99.90
12025;DHT22;6073;53.230;10.444;2023-06-22T10:48:30;29.10;99.90
12025;DHT22;6073;53.230;10.444;2023-06-22T10:50:55;28.70;99.90
12025;DHT22;6073;53.230;10.444;2023-06-22T10:53:21;28.70;99.90
12025;DHT22;6073;53.230;10.444;2023-06-22T10:55:47;28.80;99.90
12025;DHT22;6073;53.230;10.444;2023-06-22T10:58:13;29.00;99.90
12025;DHT22;6073;53.230;10.444;2023-06-22T11:00:38;29.30;99.90
12025;DHT22;6073;53.230;10.444;2023-06-22T11:03:04;29.50;99.90
12025;DHT22;6073;53.230;10.444;2023-06-22T11:05:29;29.50;99.90
12025;DHT22;6073;53.230;10.444;2023-06-22T11:07:55;29.40;99.90
12025;DHT22;6073;53.230;10.444;2023-06-22T11:10:20;29.50;99.90
12025;DHT22;6073;53.230;10.444;2023-06-22T11:12:46;29.50;99.90
12025;DHT22;6073;53.230;10.444;2023-06-22T11:15:12;29.50;99.90
12025;DHT22;6073;53.230;10.444;2023-06-22T11:17:37;29.60;99.90
12025;DHT22;6073;53.230;10.444;2023-06-22T11:20:03;30.00;99.90
12025;DHT22;6073;53.230;10.444;2023-06-22T11:22:39;30.40;99.90
12025;DHT22;6073;53.230;10.444;2023-06-22T11:25:05;30.40;99.90
12025;DHT22;6073;53.230;10.444;2023-06-22T11:27:31;30.20;99.90
12025;DHT22;6073;53.230;10.444;2023-06-22T11:29:57;30.00;99.90
12025;DHT22;6073;53.230;10.444;2023-06-22T11:32:23;29.90;99.90
12025;DHT22;6073;53.230;10.444;2023-06-22T11:34:48;30.10;99.90
12025;DHT22;6073;53.230;10.444;2023-06-22T11:37:14;30.20;99.90
12025;DHT22;6073;53.230;10.444;2023-06-22T11:39:41;30.30;99.90
12025;DHT22;6073;53.230;10.444;2023-06-22T11:42:07;30.20;99.90
12025;DHT22;6073;53.230;10.444;2023-06-22T11:44:33;29.80;99.90
12025;DHT22;6073;53.230;10.444;2023-06-22T11:46:58;29.50;99.90
12025;DHT22;6073;53.230;10.444;2023-06-22T11:49:29;29.30;99.90
12025;DHT22;6073;53.230;10.444;2023-06-22T11:51:54;29.10;99.90
12025;DHT22;6073;53.230;10.444;2023-06-22T11:54:20;29.00;99.90
12025;DHT22;6073;53.230;10.444;2023-06-22T11:56:45;29.20;99.90
12025;DHT22;6073;53.230;10.444;2023-06-22T11:59:11;29.30;99.90
12025;DHT22;6073;53.230;10.444;2023-06-22T12:01:37;29.40;99.90
12025;DHT22;6073;53.230;10.444;2023-06-22T12:04:02;29.40;99.90
12025;DHT22;6073;53.230;10.444;2023-06-22T12:06:35;29.30;99.90
12025;DHT22;6073;53.230;10.444;2023-06-22T12:09:03;29.00;99.90
12025;DHT22;6073;53.230;10.444;2023-06-22T12:11:29;28.80;99.90
12025;DHT22;6073;53.230;10.444;2023-06-22T12:13:55;28.80;99.90
12025;DHT22;6073;53.230;10.444;2023-06-22T12:16:20;28.80;99.90
12025;DHT22;6073;53.230;10.444;2023-06-22T12:18:47;29.10;99.90
12025;DHT22;6073;53.230;10.444;2023-06-22T12:21:12;29.30;99.90
12025;DHT22;6073;53.230;10.444;2023-06-22T12:23:38;29.30;99.90
12025;DHT22;6073;53.230;10.444;2023-06-22T12:26:03;29.30;99.90
12025;DHT22;6073;53.230;10.444;2023-06-22T12:28:29;28.80;99.90
12025;DHT22;6073;53.230;10.444;2023-06-22T12:30:54;28.70;99.90
12025;DHT22;6073;53.230;10.444;2023-06-22T12:33:20;28.50;99.90
12025;DHT22;6073;53.230;10.444;2023-06-22T12:35:46;28.30;99.90
12025;DHT22;6073;53.230;10.444;2023-06-22T12:38:14;28.20;99.90
12025;DHT22;6073;53.230;10.444;2023-06-22T12:40:39;28.10;99.90
12025;DHT22;6073;53.230;10.444;2023-06-22T12:43:05;28.10;99.90
12025;DHT22;6073;53.230;10.444;2023-06-22T12:45:31;28.20;99.90
12025;DHT22;6073;53.230;10.444;2023-06-22T12:47:58;28.20;99.90
12025;DHT22;6073;53.230;10.444;2023-06-22T12:50:25;28.10;99.90
12025;DHT22;6073;53.230;10.444;2023-06-22T12:52:50;28.00;99.90
12025;DHT22;6073;53.230;10.444;2023-06-22T12:55:16;28.10;99.90
12025;DHT22;6073;53.230;10.444;2023-06-22T12:57:41;27.90;99.90
12025;DHT22;6073;53.230;10.444;2023-06-22T13:00:07;27.80;99.90
12025;DHT22;6073;53.230;10.444;2023-06-22T13:02:36;27.60;99.90
12025;DHT22;6073;53.230;10.444;2023-06-22T13:05:02;27.50;99.90
12025;DHT22;6073;53.230;10.444;2023-06-22T13:07:30;27.60;99.90
12025;DHT22;6073;53.230;10.444;2023-06-22T13:09:55;27.70;99.90
12025;DHT22;6073;53.230;10.444;2023-06-22T13:12:21;27.90;99.90
12025;DHT22;6073;53.230;10.444;2023-06-22T13:14:47;27.90;99.90
12025;DHT22;6073;53.230;10.444;2023-06-22T13:17:12;27.70;99.90
12025;DHT22;6073;53.230;10.444;2023-06-22T13:19:39;27.60;99.90
12025;DHT22;6073;53.230;10.444;2023-06-22T13:22:05;27.50;99.90
12025;DHT22;6073;53.230;10.444;2023-06-22T13:24:31;27.30;99.90
12025;DHT22;6073;53.230;10.444;2023-06-22T13:26:56;27.10;99.90
12025;DHT22;6073;53.230;10.444;2023-06-22T13:29:22;26.90;99.90
12025;DHT22;6073;53.230;10.444;2023-06-22T13:31:47;26.90;99.90
12025;DHT22;6073;53.230;10.444;2023-06-22T13:34:13;26.80;99.90
12025;DHT22;6073;53.230;10.444;2023-06-22T13:36:38;26.70;99.90
12025;DHT22;6073;53.230;10.444;2023-06-22T13:39:04;26.70;99.90
12025;DHT22;6073;53.230;10.444;2023-06-22T13:41:29;26.80;99.90
12025;DHT22;6073;53.230;10.444;2023-06-22T13:43:55;26.80;99.90
12025;DHT22;6073;53.230;10.444;2023-06-22T13:46:20;26.80;99.90
12025;DHT22;6073;53.230;10.444;2023-06-22T13:48:46;26.80;99.90
12025;DHT22;6073;53.230;10.444;2023-06-22T13:51:12;26.90;99.90
12025;DHT22;6073;53.230;10.444;2023-06-22T13:53:37;26.90;99.90
12025;DHT22;6073;53.230;10.444;2023-06-22T13:56:03;27.00;99.90
12025;DHT22;6073;53.230;10.444;2023-06-22T13:58:29;27.20;99.90
12025;DHT22;6073;53.230;10.444;2023-06-22T14:00:54;27.30;99.90
12025;DHT22;6073;53.230;10.444;2023-06-22T14:03:20;27.10;99.90
12025;DHT22;6073;53.230;10.444;2023-06-22T14:05:45;27.00;99.90
12025;DHT22;6073;53.230;10.444;2023-06-22T14:08:12;27.00;99.90
12025;DHT22;6073;53.230;10.444;2023-06-22T14:10:38;26.90;99.90
12025;DHT22;6073;53.230;10.444;2023-06-22T14:13:03;26.70;99.90
12025;DHT22;6073;53.230;10.444;2023-06-22T14:15:31;26.70;99.90
12025;DHT22;6073;53.230;10.444;2023-06-22T14:17:57;26.80;99.90
12025;DHT22;6073;53.230;10.444;2023-06-22T14:20:22;26.80;99.90
12025;DHT22;6073;53.230;10.444;2023-06-22T14:22:48;26.80;99.90
12025;DHT22;6073;53.230;10.444;2023-06-22T14:25:13;26.80;99.90
12025;DHT22;6073;53.230;10.444;2023-06-22T14:27:39;26.90;99.90
12025;DHT22;6073;53.230;10.444;2023-06-22T14:30:05;27.00;99.90
12025;DHT22;6073;53.230;10.444;2023-06-22T14:32:31;27.10;99.90
12025;DHT22;6073;53.230;10.444;2023-06-22T14:34:56;27.20;99.90
12025;DHT22;6073;53.230;10.444;2023-06-22T14:37:22;27.20;99.90
12025;DHT22;6073;53.230;10.444;2023-06-22T14:39:47;27.30;99.90
12025;DHT22;6073;53.230;10.444;2023-06-22T14:42:13;27.40;99.90
12025;DHT22;6073;53.230;10.444;2023-06-22T14:44:38;27.50;99.90
12025;DHT22;6073;53.230;10.444;2023-06-22T14:47:04;27.60;99.90
12025;DHT22;6073;53.230;10.444;2023-06-22T14:49:30;27.50;99.90
12025;DHT22;6073;53.230;10.444;2023-06-22T14:51:55;27.30;99.90
12025;DHT22;6073;53.230;10.444;2023-06-22T14:54:21;27.20;99.90
12025;DHT22;6073;53.230;10.444;2023-06-22T14:56:48;27.20;99.90
12025;DHT22;6073;53.230;10.444;2023-06-22T14:59:13;27.10;99.90
12025;DHT22;6073;53.230;10.444;2023-06-22T15:01:39;27.00;99.90
12025;DHT22;6073;53.230;10.444;2023-06-22T15:04:04;27.10;99.90
12025;DHT22;6073;53.230;10.444;2023-06-22T15:06:30;27.10;99.90
12025;DHT22;6073;53.230;10.444;2023-06-22T15:08:55;27.10;99.90
12025;DHT22;6073;53.230;10.444;2023-06-22T15:11:21;27.10;99.90
12025;DHT22;6073;53.230;10.444;2023-06-22T15:13:47;26.90;99.90
12025;DHT22;6073;53.230;10.444;2023-06-22T15:16:12;26.70;99.90
12025;DHT22;6073;53.230;10.444;2023-06-22T15:18:38;26.50;99.90
12025;DHT22;6073;53.230;10.444;2023-06-22T15:21:06;26.50;99.90
12025;DHT22;6073;53.230;10.444;2023-06-22T15:23:32;26.40;99.90
12025;DHT22;6073;53.230;10.444;2023-06-22T15:26:00;26.40;99.90
12025;DHT22;6073;53.230;10.444;2023-06-22T15:28:26;26.20;99.90
12025;DHT22;6073;53.230;10.444;2023-06-22T15:30:52;26.10;99.90
12025;DHT22;6073;53.230;10.444;2023-06-22T15:33:18;26.00;99.90
12025;DHT22;6073;53.230;10.444;2023-06-22T15:35:43;26.00;99.90
12025;DHT22;6073;53.230;10.444;2023-06-22T15:38:09;25.90;99.90
12025;DHT22;6073;53.230;10.444;2023-06-22T15:40:34;25.90;99.90
12025;DHT22;6073;53.230;10.444;2023-06-22T15:43:00;26.00;99.90
12025;DHT22;6073;53.230;10.444;2023-06-22T15:45:26;26.00;99.90
12025;DHT22;6073;53.230;10.444;2023-06-22T15:47:51;26.00;99.90